createdAt,value
2019-04-14T00:01:56.933Z,2.50
2019-04-14T00:04:31.260Z,2.40
2019-04-14T00:07:01.448Z,2.40
2019-04-14T00:09:33.765Z,2.50
2019-04-14T00:12:05.820Z,2.40
2019-04-14T00:14:33.658Z,2.40
2019-04-14T00:17:02.883Z,2.40
2019-04-14T00:19:32.706Z,2.50
2019-04-14T00:22:03.211Z,2.50
2019-04-14T00:24:33.477Z,2.50
2019-04-14T00:27:02.778Z,2.50
2019-04-14T00:29:32.691Z,2.50
2019-04-14T00:32:02.988Z,2.50
2019-04-14T00:34:50.804Z,2.50
2019-04-14T00:37:25.178Z,2.50
2019-04-14T00:39:55.687Z,2.50
2019-04-14T00:42:38.730Z,2.50
2019-04-14T00:45:13.325Z,2.50
2019-04-14T00:48:03.422Z,2.50
2019-04-14T00:50:27.566Z,2.50
2019-04-14T00:52:56.751Z,2.60
2019-04-14T00:55:25.678Z,2.60
2019-04-14T00:57:55.138Z,2.60
2019-04-14T01:00:25.268Z,2.60
2019-04-14T01:02:54.325Z,2.70
2019-04-14T01:05:24.117Z,2.70
2019-04-14T01:07:54.346Z,2.70
2019-04-14T01:10:23.603Z,2.70
2019-04-14T01:12:53.843Z,2.90
2019-04-14T01:15:23.013Z,2.90
2019-04-14T01:17:52.988Z,2.90
2019-04-14T01:20:23.154Z,3.00
2019-04-14T01:22:53.108Z,3.00
2019-04-14T01:25:22.077Z,3.00
2019-04-14T01:27:51.744Z,3.00
2019-04-14T01:30:21.904Z,3.00
2019-04-14T01:32:52.111Z,3.00
2019-04-14T01:35:21.115Z,3.00
2019-04-14T01:37:50.721Z,3.00
2019-04-14T01:40:20.691Z,3.00
2019-04-14T01:42:50.609Z,3.00
2019-04-14T01:45:21.051Z,3.00
2019-04-14T01:47:51.073Z,2.90
2019-04-14T01:50:21.757Z,3.00
2019-04-14T01:52:58.923Z,3.00
2019-04-14T01:55:41.679Z,3.00
2019-04-14T01:58:12.266Z,3.10
2019-04-14T02:00:55.404Z,3.10
2019-04-14T02:03:24.403Z,3.10
2019-04-14T02:05:53.918Z,3.10
2019-04-14T02:08:24.101Z,3.20
2019-04-14T02:10:54.321Z,3.30
2019-04-14T02:13:24.644Z,3.30
2019-04-14T02:15:54.743Z,3.30
2019-04-14T02:18:24.961Z,3.40
2019-04-14T02:20:54.112Z,3.40
2019-04-14T02:23:23.623Z,3.40
2019-04-14T02:25:53.630Z,3.30
2019-04-14T02:28:22.797Z,3.30
2019-04-14T02:31:08.244Z,3.30
2019-04-14T02:33:59.014Z,3.20
2019-04-14T02:39:10.394Z,3.20
2019-04-14T02:41:30.976Z,3.10
2019-04-14T02:46:26.280Z,3.10
2019-04-14T02:48:58.575Z,3.00
2019-04-14T02:53:57.729Z,3.00
2019-04-14T02:56:28.026Z,3.00
2019-04-14T03:06:29.159Z,3.10
2019-04-14T03:09:13.001Z,3.20
2019-04-14T03:16:42.866Z,3.30
2019-04-14T03:19:11.821Z,3.40
2019-04-14T03:21:48.846Z,3.40
2019-04-14T03:24:20.425Z,3.40
2019-04-14T03:27:04.933Z,3.40
2019-04-14T03:29:37.025Z,3.40
2019-04-14T03:39:52.023Z,3.60
2019-04-14T03:47:13.589Z,3.60
2019-04-14T03:50:02.586Z,3.60
2019-04-14T03:52:13.007Z,3.60
2019-04-14T03:54:39.968Z,3.60
2019-04-14T03:56:55.635Z,3.70
2019-04-14T03:59:25.981Z,3.70
2019-04-14T04:01:56.435Z,3.70
2019-04-14T04:04:25.582Z,3.80
2019-04-14T04:06:55.357Z,3.90
2019-04-14T04:09:26.245Z,4.00
2019-04-14T04:11:56.220Z,4.00
2019-04-14T04:14:27.206Z,4.00
2019-04-14T04:17:16.896Z,4.10
2019-04-14T04:19:56.110Z,4.10
2019-04-14T04:22:32.669Z,4.10
2019-04-14T04:25:03.186Z,4.10
2019-04-14T04:27:50.499Z,4.10
2019-04-14T04:30:27.605Z,4.10
2019-04-14T04:33:04.436Z,4.10
2019-04-14T04:35:34.960Z,4.10
2019-04-14T04:38:18.107Z,4.00
2019-04-14T04:40:50.755Z,3.90
2019-04-14T04:43:21.073Z,3.90
2019-04-14T04:45:50.224Z,3.80
2019-04-14T04:48:19.621Z,3.70
2019-04-14T04:50:49.847Z,3.70
2019-04-14T04:53:20.162Z,3.70
2019-04-14T04:55:50.369Z,3.70
2019-04-14T04:58:19.561Z,3.70
2019-04-14T05:00:51.472Z,3.80
2019-04-14T05:03:19.370Z,3.90
2019-04-14T05:06:25.072Z,3.90
2019-04-14T05:08:56.911Z,4.00
2019-04-14T05:11:27.475Z,4.10
2019-04-14T05:13:57.985Z,4.00
2019-04-14T05:16:27.940Z,4.10
2019-04-14T05:19:11.417Z,4.10
2019-04-14T05:21:29.972Z,4.10
2019-04-14T05:24:00.559Z,4.20
2019-04-14T05:26:30.893Z,4.20
2019-04-14T05:29:01.337Z,4.20
2019-04-14T05:31:30.914Z,4.30
2019-04-14T05:34:02.164Z,4.30
2019-04-14T05:36:32.437Z,4.40
2019-04-14T05:39:02.710Z,4.40
2019-04-14T05:41:32.926Z,4.40
2019-04-14T05:44:03.597Z,4.40
2019-04-14T05:46:33.923Z,4.40
2019-04-14T05:49:04.311Z,4.50
2019-04-14T05:51:35.092Z,4.50
2019-04-14T05:54:05.666Z,4.50
2019-04-14T05:56:37.539Z,4.50
2019-04-14T05:59:06.740Z,4.50
2019-04-14T06:01:39.194Z,4.60
2019-04-14T06:04:09.351Z,4.60
2019-04-14T06:06:38.786Z,4.60
2019-04-14T06:09:09.363Z,4.60
2019-04-14T06:11:39.750Z,4.70
2019-04-14T06:14:11.998Z,4.70
2019-04-14T06:16:41.978Z,4.70
2019-04-14T06:19:12.202Z,4.80
2019-04-14T06:21:41.659Z,4.80
2019-04-14T06:24:10.771Z,4.80
2019-04-14T06:26:39.654Z,4.90
2019-04-14T06:29:08.585Z,4.80
2019-04-14T06:31:39.347Z,4.90
2019-04-14T06:34:28.650Z,4.90
2019-04-14T06:36:59.240Z,4.90
2019-04-14T06:39:35.907Z,4.90
2019-04-14T06:42:05.377Z,4.90
2019-04-14T06:44:34.331Z,4.90
2019-04-14T06:47:03.961Z,4.90
2019-04-14T06:49:32.821Z,4.90
2019-04-14T06:52:01.864Z,4.90
2019-04-14T06:54:30.858Z,4.90
2019-04-14T06:56:59.901Z,4.90
2019-04-14T06:59:29.400Z,5.00
2019-04-14T07:02:01.520Z,5.00
2019-04-14T07:04:29.547Z,5.00
2019-04-14T07:06:58.935Z,5.10
2019-04-14T07:09:28.610Z,5.20
2019-04-14T07:11:57.589Z,5.10
2019-04-14T07:14:31.633Z,5.20
2019-04-14T07:16:58.310Z,5.20
2019-04-14T07:19:27.726Z,5.40
2019-04-14T07:21:56.735Z,5.40
2019-04-14T07:24:25.719Z,5.30
2019-04-14T07:26:55.070Z,5.30
2019-04-14T07:29:25.606Z,5.40
2019-04-14T07:32:11.373Z,5.40
2019-04-14T07:34:47.888Z,5.40
2019-04-14T07:37:30.476Z,5.40
2019-04-14T07:40:16.142Z,5.50
2019-04-14T07:42:46.627Z,5.50
2019-04-14T07:45:26.001Z,5.50
2019-04-14T07:47:57.242Z,5.60
2019-04-14T07:50:28.226Z,5.60
2019-04-14T07:53:10.968Z,5.70
2019-04-14T07:55:41.462Z,5.70
2019-04-14T07:58:14.406Z,5.70
2019-04-14T08:00:47.827Z,5.80
2019-04-14T08:03:18.325Z,5.90
2019-04-14T08:05:47.231Z,5.90
2019-04-14T08:08:16.091Z,6.00
2019-04-14T08:10:45.028Z,6.10
2019-04-14T08:13:13.955Z,6.10
2019-04-14T08:15:42.848Z,6.20
2019-04-14T08:18:11.772Z,6.20
2019-04-14T08:20:40.728Z,6.30
2019-04-14T08:23:09.658Z,6.40
2019-04-14T08:25:38.605Z,6.50
2019-04-14T08:28:07.559Z,6.60
2019-04-14T08:30:36.610Z,6.60
2019-04-14T08:33:05.506Z,6.50
2019-04-14T08:35:34.579Z,6.60
2019-04-14T08:38:03.686Z,6.50
2019-04-14T08:40:33.180Z,6.60
2019-04-14T08:43:06.702Z,6.60
2019-04-14T08:45:45.087Z,6.80
2019-04-14T08:48:32.571Z,6.90
2019-04-14T08:51:03.897Z,7.00
2019-04-14T08:53:53.010Z,7.20
2019-04-14T08:56:30.082Z,7.70
2019-04-14T08:59:01.344Z,8.20
2019-04-14T09:01:31.903Z,8.40
2019-04-14T09:04:14.448Z,8.00
2019-04-14T09:06:45.229Z,7.90
2019-04-14T09:09:15.826Z,7.60
2019-04-14T09:11:46.829Z,7.50
2019-04-14T09:14:15.891Z,7.80
2019-04-14T09:16:44.846Z,8.00
2019-04-14T09:19:14.227Z,7.90
2019-04-14T09:21:43.224Z,7.90
2019-04-14T09:24:12.124Z,7.80
2019-04-14T09:26:41.058Z,7.60
2019-04-14T09:29:10.089Z,7.30
2019-04-14T09:31:39.020Z,7.30
2019-04-14T09:34:07.903Z,7.20
2019-04-14T09:36:36.874Z,7.40
2019-04-14T09:39:07.291Z,7.30
2019-04-14T09:41:36.655Z,7.20
2019-04-14T09:44:05.646Z,7.30
2019-04-14T09:46:34.710Z,7.70
2019-04-14T09:49:03.669Z,7.80
2019-04-14T09:51:32.616Z,8.10
2019-04-14T09:54:01.663Z,8.60
2019-04-14T09:56:30.579Z,9.00
2019-04-14T09:58:59.519Z,9.30
2019-04-14T10:01:28.627Z,9.20
2019-04-14T10:03:57.901Z,9.50
2019-04-14T10:06:26.905Z,9.60
2019-04-14T10:08:56.011Z,9.60
2019-04-14T10:11:25.075Z,9.30
2019-04-14T10:13:54.200Z,9.10
2019-04-14T10:16:23.202Z,8.90
2019-04-14T10:18:52.484Z,8.60
2019-04-14T10:21:21.982Z,8.40
2019-04-14T10:23:51.270Z,8.20
2019-04-14T10:26:20.281Z,8.00
2019-04-14T10:28:50.742Z,7.80
2019-04-14T10:31:20.275Z,7.70
2019-04-14T10:33:49.482Z,7.80
2019-04-14T10:36:18.458Z,7.80
2019-04-14T10:38:47.488Z,7.90
2019-04-14T10:41:16.505Z,8.00
2019-04-14T10:43:45.475Z,8.00
2019-04-14T10:46:14.402Z,8.00
2019-04-14T10:48:43.288Z,7.90
2019-04-14T10:51:12.288Z,7.60
2019-04-14T10:53:41.330Z,7.30
2019-04-14T10:56:10.186Z,7.30
2019-04-14T10:58:39.137Z,7.40
2019-04-14T11:01:08.019Z,7.30
2019-04-14T11:03:36.942Z,7.50
2019-04-14T11:06:16.215Z,7.40
2019-04-14T11:08:45.125Z,7.40
2019-04-14T11:11:14.029Z,7.40
2019-04-14T11:13:43.421Z,7.40
2019-04-14T11:16:12.793Z,7.20
2019-04-14T11:18:42.091Z,7.30
2019-04-14T11:21:11.219Z,7.40
2019-04-14T11:23:40.718Z,7.50
2019-04-14T11:26:11.090Z,7.50
2019-04-14T11:28:42.005Z,7.50
2019-04-14T11:31:13.930Z,7.50
2019-04-14T11:42:16.158Z,8.00
2019-04-14T11:44:45.345Z,7.90
2019-04-14T11:47:16.296Z,7.80
2019-04-14T11:49:45.393Z,7.90
2019-04-14T11:52:14.368Z,7.90
2019-04-14T11:54:43.328Z,7.90
2019-04-14T11:57:12.352Z,7.90
2019-04-14T11:59:42.814Z,7.90
2019-04-14T12:02:25.440Z,7.90
2019-04-14T12:04:58.980Z,7.90
2019-04-14T12:07:32.195Z,7.90
2019-04-14T12:10:05.387Z,7.90
2019-04-14T12:12:34.315Z,7.90
2019-04-14T12:15:03.503Z,7.80
2019-04-14T12:17:32.474Z,7.90
2019-04-14T12:20:01.394Z,8.10
2019-04-14T12:22:30.723Z,8.20
2019-04-14T12:24:59.761Z,8.30
2019-04-14T12:27:28.793Z,8.80
2019-04-14T12:29:58.929Z,9.10
2019-04-14T12:32:29.452Z,9.30
2019-04-14T12:34:58.529Z,9.20
2019-04-14T12:37:27.719Z,9.10
2019-04-14T12:39:57.351Z,9.40
2019-04-14T12:42:27.842Z,9.80
2019-04-14T12:45:01.121Z,9.90
2019-04-14T12:47:39.800Z,9.90
2019-04-14T12:50:10.467Z,9.60
2019-04-14T12:52:39.736Z,9.40
2019-04-14T12:55:09.079Z,9.50
2019-04-14T12:57:51.897Z,9.50
2019-04-14T13:00:22.728Z,9.30
2019-04-14T13:02:53.309Z,9.90
2019-04-14T13:05:22.331Z,10.00
2019-04-14T13:07:51.265Z,10.30
2019-04-14T13:10:20.500Z,10.00
2019-04-14T13:12:49.458Z,10.00
2019-04-14T13:15:18.667Z,9.80
2019-04-14T13:17:47.829Z,9.80
2019-04-14T13:20:17.122Z,10.00
2019-04-14T13:22:46.204Z,9.90
2019-04-14T13:25:15.481Z,9.50
2019-04-14T13:27:44.478Z,9.50
2019-04-14T13:30:15.283Z,9.70
2019-04-14T13:32:44.466Z,10.40
2019-04-14T13:35:13.590Z,10.50
2019-04-14T13:37:42.649Z,10.60
2019-04-14T13:40:12.317Z,10.10
2019-04-14T13:42:41.199Z,10.60
2019-04-14T13:45:10.348Z,10.60
2019-04-14T13:47:39.360Z,10.40
2019-04-14T13:52:52.651Z,10.20
2019-04-14T13:55:21.692Z,10.70
2019-04-14T13:57:52.341Z,10.90
2019-04-14T14:00:22.166Z,11.50
2019-04-14T14:06:02.011Z,11.10
2019-04-14T14:08:31.106Z,10.90
2019-04-14T14:11:10.752Z,10.40
2019-04-14T14:13:41.471Z,10.10
2019-04-14T14:16:29.835Z,9.90
2019-04-14T14:19:03.937Z,9.60
2019-04-14T14:21:37.676Z,9.40
2019-04-14T14:24:22.977Z,9.20
2019-04-14T14:26:56.179Z,9.70
2019-04-14T14:29:25.401Z,9.90
2019-04-14T14:31:55.169Z,9.70
2019-04-14T14:34:24.755Z,9.60
2019-04-14T14:37:30.227Z,9.70
2019-04-14T14:39:59.378Z,9.60
2019-04-14T14:42:43.142Z,9.20
2019-04-14T14:45:32.174Z,9.00
2019-04-14T14:48:22.233Z,9.00
2019-04-14T14:50:55.528Z,9.10
2019-04-14T14:53:25.468Z,8.90
2019-04-14T14:55:55.170Z,8.70
2019-04-14T14:58:24.092Z,8.60
2019-04-14T15:11:51.611Z,8.30
2019-04-14T15:15:00.925Z,8.30
2019-04-14T15:21:02.460Z,8.20
2019-04-14T15:23:31.377Z,8.40
2019-04-14T15:26:00.258Z,8.50
2019-04-14T15:28:29.418Z,8.60
2019-04-14T15:30:58.314Z,8.40
2019-04-14T15:33:27.218Z,8.30
2019-04-14T15:35:56.350Z,8.30
2019-04-14T15:38:25.326Z,8.20
2019-04-14T15:40:54.294Z,8.10
2019-04-14T15:43:23.235Z,8.30
2019-04-14T15:45:52.142Z,8.60
2019-04-14T15:48:21.071Z,8.50
2019-04-14T15:50:49.980Z,8.20
2019-04-14T15:53:19.136Z,8.10
2019-04-14T15:55:48.010Z,8.00
2019-04-14T15:58:30.489Z,7.90
2019-04-14T16:01:19.001Z,8.30
2019-04-14T16:03:49.536Z,8.60
2019-04-14T16:06:36.410Z,8.40
2019-04-14T16:09:08.791Z,8.20
2019-04-14T16:11:40.055Z,7.90
2019-04-14T16:14:22.548Z,7.90
2019-04-14T16:16:59.179Z,7.80
2019-04-14T16:19:35.632Z,7.70
2019-04-14T16:22:04.659Z,7.70
2019-04-14T16:24:33.532Z,7.70
2019-04-14T16:27:06.503Z,7.70
2019-04-14T16:29:37.074Z,7.60
2019-04-14T16:32:07.588Z,7.70
2019-04-14T16:34:47.072Z,7.70
2019-04-14T16:37:16.100Z,7.70
2019-04-14T16:39:44.977Z,7.70
2019-04-14T16:42:13.925Z,7.60
2019-04-14T16:44:42.840Z,7.50
2019-04-14T16:47:11.805Z,7.50
2019-04-14T16:49:40.807Z,7.50
2019-04-14T16:52:11.259Z,7.50
2019-04-14T16:54:41.770Z,7.40
2019-04-14T16:57:29.020Z,7.40
2019-04-14T16:59:57.931Z,7.40
2019-04-14T17:02:27.149Z,7.40
2019-04-14T17:04:56.062Z,7.40
2019-04-14T17:07:24.940Z,7.30
2019-04-14T17:09:53.866Z,7.30
2019-04-14T17:12:22.768Z,7.30
2019-04-14T17:15:05.530Z,7.20
2019-04-14T17:17:36.039Z,7.10
2019-04-14T17:20:11.205Z,7.10
2019-04-14T17:22:45.439Z,7.10
2019-04-14T17:25:30.853Z,7.00
2019-04-14T17:28:04.484Z,7.00
2019-04-14T17:30:35.164Z,6.90
2019-04-14T17:33:09.692Z,6.90
2019-04-14T17:35:59.628Z,7.00
2019-04-14T17:38:32.929Z,7.00
2019-04-14T17:41:09.409Z,6.90
2019-04-14T17:43:39.968Z,6.90
2019-04-14T17:46:26.589Z,6.80
2019-04-14T17:49:15.387Z,6.70
2019-04-14T17:52:02.826Z,6.70
2019-04-14T17:54:35.922Z,6.70
2019-04-14T17:57:18.700Z,6.60
2019-04-14T17:59:49.161Z,6.60
2019-04-14T18:02:22.242Z,6.60
2019-04-14T18:04:52.734Z,6.60
2019-04-14T18:07:23.266Z,6.60
2019-04-14T18:10:02.881Z,6.60
2019-04-14T18:12:33.379Z,6.60
2019-04-14T18:15:05.419Z,6.50
2019-04-14T18:17:36.061Z,6.50
2019-04-14T18:20:09.093Z,6.50
2019-04-14T18:22:38.278Z,6.50
2019-04-14T18:25:09.126Z,6.50
2019-04-14T18:27:47.145Z,6.50
2019-04-14T18:30:17.701Z,6.40
2019-04-14T18:32:53.711Z,6.30
2019-04-14T18:35:26.665Z,6.20
2019-04-14T18:38:09.117Z,6.20
2019-04-14T18:40:42.352Z,6.20
2019-04-14T18:43:29.023Z,6.10
2019-04-14T18:45:59.541Z,6.10
2019-04-14T18:48:48.271Z,6.10
2019-04-14T18:51:24.430Z,6.00
2019-04-14T18:54:04.166Z,5.90
2019-04-14T18:56:37.959Z,5.90
2019-04-14T18:59:20.391Z,6.00
2019-04-14T19:01:50.906Z,6.00
2019-04-14T19:04:19.811Z,5.90
2019-04-14T19:06:48.771Z,5.80
2019-04-14T19:09:17.700Z,5.80
2019-04-14T19:11:51.345Z,5.70
2019-04-14T19:14:22.022Z,5.70
2019-04-14T19:17:01.519Z,5.70
2019-04-14T19:19:32.021Z,5.70
2019-04-14T19:22:00.917Z,5.70
2019-04-14T19:24:30.023Z,5.70
2019-04-14T19:26:59.072Z,5.70
2019-04-14T19:29:28.073Z,5.70
2019-04-14T19:31:57.182Z,5.70
2019-04-14T19:34:26.241Z,5.70
2019-04-14T19:36:56.770Z,5.80
2019-04-14T19:39:25.726Z,5.70
2019-04-14T19:41:54.655Z,5.70
2019-04-14T19:44:23.627Z,5.70
2019-04-14T19:46:53.036Z,5.60
2019-04-14T19:49:22.034Z,5.50
2019-04-14T19:51:50.981Z,5.60
2019-04-14T19:54:19.862Z,5.50
2019-04-14T19:56:48.896Z,5.40
2019-04-14T19:59:17.853Z,5.40
2019-04-14T20:01:46.934Z,5.30
2019-04-14T20:04:15.798Z,5.30
2019-04-14T20:06:44.831Z,5.20
2019-04-14T20:09:13.691Z,5.10
2019-04-14T20:11:42.717Z,5.10
2019-04-14T20:14:12.464Z,5.20
2019-04-14T20:16:45.835Z,5.10
2019-04-14T20:19:22.126Z,5.00
2019-04-14T20:21:52.603Z,5.00
2019-04-14T20:24:38.173Z,5.00
2019-04-14T20:27:24.743Z,5.00
2019-04-14T20:30:04.025Z,5.00
2019-04-14T20:32:34.548Z,4.90
2019-04-14T20:35:04.275Z,4.80
2019-04-14T20:37:33.166Z,4.80
2019-04-14T20:40:02.294Z,4.70
2019-04-14T20:42:31.416Z,4.70
2019-04-14T20:45:01.204Z,4.70
2019-04-14T20:47:30.812Z,4.60
2019-04-14T20:49:59.772Z,4.50
2019-04-14T20:52:28.719Z,4.50
2019-04-14T20:54:57.798Z,4.50
2019-04-14T20:57:26.720Z,4.50
2019-04-14T20:59:55.877Z,4.50
2019-04-14T21:02:32.453Z,4.50
2019-04-14T21:05:05.690Z,4.50
2019-04-14T21:07:45.295Z,4.60
2019-04-14T21:10:18.527Z,4.60
2019-04-14T21:12:52.064Z,4.70
2019-04-14T21:15:28.685Z,4.70
2019-04-14T21:18:08.353Z,4.80
2019-04-14T21:20:41.983Z,4.90
2019-04-14T21:23:21.365Z,4.90
2019-04-14T21:26:06.497Z,5.00
2019-04-14T21:28:54.163Z,5.10
2019-04-14T21:31:27.373Z,5.20
2019-04-14T21:34:09.434Z,5.20
2019-04-14T21:36:43.067Z,5.20
2019-04-14T21:39:19.422Z,4.90
2019-04-14T21:41:49.920Z,4.70
2019-04-14T21:44:18.839Z,4.60
2019-04-14T21:46:48.651Z,4.50
2019-04-14T21:49:17.532Z,4.50
2019-04-14T21:52:00.401Z,4.40
2019-04-14T21:54:29.350Z,4.40
2019-04-14T21:57:12.054Z,4.40
2019-04-14T21:59:54.533Z,4.40
2019-04-14T22:02:41.375Z,4.40
2019-04-14T22:05:28.392Z,4.40
2019-04-14T22:08:02.121Z,4.40
2019-04-14T22:10:32.950Z,4.50
2019-04-14T22:13:01.870Z,4.40
2019-04-14T22:15:30.969Z,4.50
2019-04-14T22:18:00.013Z,4.50
2019-04-14T22:20:28.969Z,4.60
2019-04-14T22:22:58.558Z,4.60
2019-04-14T22:25:27.546Z,4.60
2019-04-14T22:27:56.516Z,4.70
2019-04-14T22:30:25.457Z,4.70
2019-04-14T22:32:54.397Z,4.70
2019-04-14T22:35:23.431Z,4.70
2019-04-14T22:37:52.311Z,4.60
2019-04-14T22:40:21.299Z,4.70
2019-04-14T22:42:50.202Z,4.70
2019-04-14T22:45:19.124Z,4.70
2019-04-14T22:48:07.191Z,4.60
2019-04-14T22:50:38.097Z,4.70
2019-04-14T22:53:07.967Z,4.60
2019-04-14T22:55:38.116Z,4.60
2019-04-14T22:58:08.228Z,4.60
2019-04-14T23:00:49.060Z,4.60
2019-04-14T23:03:20.895Z,4.50
2019-04-14T23:05:58.465Z,4.50
2019-04-14T23:11:15.914Z,4.40
2019-04-14T23:13:46.365Z,4.40
2019-04-14T23:16:28.696Z,4.40
2019-04-14T23:18:59.322Z,4.40
2019-04-14T23:21:44.556Z,4.40
2019-04-14T23:24:15.088Z,4.40
2019-04-14T23:26:52.405Z,4.40
2019-04-14T23:29:14.697Z,4.40
2019-04-14T23:31:43.594Z,4.50
2019-04-14T23:34:12.547Z,4.50
2019-04-14T23:36:41.435Z,4.50
2019-04-14T23:39:12.428Z,4.50
2019-04-14T23:41:41.316Z,4.60
2019-04-14T23:44:10.894Z,4.50
2019-04-14T23:46:39.857Z,4.50
2019-04-14T23:49:08.916Z,4.50
2019-04-14T23:51:37.962Z,4.50
2019-04-14T23:54:06.860Z,4.40
2019-04-14T23:56:35.827Z,4.40
2019-04-14T23:59:04.874Z,4.40
